Time;durP1;ratioP1;P1;durP2;ratioP2;P2;SDS_P1;SDS_P2;PMS_P1;PMS_P2;Temp;Humidity;BMP_temperature;BMP_pressure;BME280_temperature;BME280_humidity;BME280_pressure;Samples;Min_cycle;Max_cycle;Signal;HPM_P1;HPM_P2
2022/01/23 00:01:50;;;;;;;;;31.00;29.33;;;;;9.27;54.93;103125.84;5088403;27;46414;-73
2022/01/23 00:04:16;;;;;;;;;36.67;33.33;;;;;9.30;55.04;103129.16;5093914;27;45384;-75
2022/01/23 00:06:44;;;;;;;;;37.33;32.67;;;;;9.34;54.61;103129.72;5095062;27;45436;-76
2022/01/23 00:09:10;;;;;;;;;31.33;29.67;;;;;9.35;54.74;103124.09;5076592;27;46190;-75
2022/01/23 00:11:42;;;;;;;;;34.67;30.33;;;;;9.31;54.51;103122.66;5097586;27;45396;-74
2022/01/23 00:19:17;;;;;;;;;36.00;29.67;;;;;9.16;54.23;103115.84;5098039;27;45365;-75
2022/01/23 00:21:42;;;;;;;;;36.00;30.67;;;;;9.16;54.81;103124.06;5099655;27;45757;-73
2022/01/23 00:30:32;;;;;;;;;35.33;29.67;;;;;8.96;55.19;103101.25;5045988;27;45295;-74
2022/01/23 00:32:32;;;;;;;;;25.67;22.67;;;;;9.01;54.64;103115.38;5087038;27;45896;-75
2022/01/23 00:35:00;;;;;;;;;30.00;27.67;;;;;8.92;54.66;103097.06;5079756;28;45442;-75
2022/01/23 00:37:25;;;;;;;;;28.67;25.33;;;;;9.00;54.46;103102.72;5080310;27;45282;-75
2022/01/23 00:39:51;;;;;;;;;13.67;6.33;;;;;9.02;54.77;103115.25;5081949;27;45366;-75
2022/01/23 00:42:16;;;;;;;;;29.00;22.67;;;;;8.99;54.71;103100.97;5081711;27;47193;-74
2022/01/23 00:44:45;;;;;;;;;34.33;29.67;;;;;9.06;54.87;103112.25;5100862;27;45328;-74
2022/01/23 00:47:12;;;;;;;;;29.67;23.33;;;;;9.08;54.81;103099.28;5103792;27;45442;-73
2022/01/23 00:49:38;;;;;;;;;35.00;29.67;;;;;8.96;54.69;103096.66;5097298;27;46513;-74
2022/01/23 00:52:04;;;;;;;;;43.25;34.25;;;;;9.06;54.81;103101.31;5083510;27;46406;-74
2022/01/23 00:54:30;;;;;;;;;37.25;34.00;;;;;8.98;54.89;103099.25;5102115;27;45336;-74
2022/01/23 00:56:55;;;;;;;;;40.75;34.50;;;;;8.95;54.78;103107.75;5084776;27;45332;-76
2022/01/23 00:59:21;;;;;;;;;38.00;31.33;;;;;8.89;54.93;103100.97;5101726;27;45305;-75
2022/01/23 01:01:46;;;;;;;;;34.00;29.00;;;;;8.84;55.05;103105.97;5102845;27;45732;-74
2022/01/23 01:04:14;;;;;;;;;33.33;28.33;;;;;8.67;55.31;103080.16;5102293;27;45445;-72
2022/01/23 01:06:40;;;;;;;;;30.33;28.00;;;;;8.72;55.13;103105.22;5100925;27;45437;-72
2022/01/23 01:09:07;;;;;;;;;34.00;26.00;;;;;8.63;55.46;103093.22;5100731;27;45777;-72
2022/01/23 01:30:35;;;;;;;;;39.25;30.50;;;;;8.52;56.27;103093.34;5093897;27;45550;-76
2022/01/23 01:35:39;;;;;;;;;35.67;30.00;;;;;8.51;55.96;103077.06;5098376;27;45531;-72
2022/01/23 01:38:06;;;;;;;;;32.00;29.00;;;;;8.60;55.63;103090.78;5102828;27;45719;-75
2022/01/23 01:40:31;;;;;;;;;30.67;26.00;;;;;8.65;55.82;103093.97;5103829;27;45364;-73
2022/01/23 01:43:00;;;;;;;;;32.00;26.33;;;;;8.71;55.65;103094.41;5101149;27;45463;-73
2022/01/23 01:45:29;;;;;;;;;53.75;43.00;;;;;8.70;55.56;103095.41;5098277;27;45412;-74
2022/01/23 01:47:59;;;;;;;;;27.75;23.00;;;;;8.68;55.60;103086.50;5085196;27;44756;-73
2022/01/23 01:50:24;;;;;;;;;36.67;31.00;;;;;8.66;55.82;103083.88;5103877;27;45241;-73
2022/01/23 01:52:50;;;;;;;;;40.75;30.00;;;;;8.58;55.95;103065.44;5091850;27;45427;-73
2022/01/23 01:55:43;;;;;;;;;35.00;31.33;;;;;8.73;55.58;103084.22;5081089;28;45381;-73
2022/01/23 01:58:32;;;;;;;;;37.00;30.33;;;;;8.77;56.09;103080.19;5064277;28;44878;-73
2022/01/23 02:00:58;;;;;;;;;36.25;30.00;;;;;8.76;55.83;103068.38;5082542;28;45737;-74
2022/01/23 02:08:54;;;;;;;;;35.25;24.25;;;;;8.77;55.68;103080.19;5081583;27;45377;-74
2022/01/23 02:11:49;;;;;;;;;40.00;32.00;;;;;8.73;55.50;103078.75;5088820;27;45883;-73
2022/01/23 02:14:26;;;;;;;;;32.33;28.00;;;;;8.65;55.48;103082.16;5100704;27;45866;-74
2022/01/23 02:22:36;;;;;;;;;23.33;23.33;;;;;8.60;55.37;103079.84;5090142;27;45373;-71
2022/01/23 02:50:31;;;;;;;;;25.33;19.33;;;;;8.60;55.61;103068.03;5088919;27;45418;-75
2022/01/23 02:55:39;;;;;;;;;35.67;29.00;;;;;8.48;56.12;103046.25;5102097;27;45380;-75
2022/01/23 02:58:05;;;;;;;;;27.67;25.00;;;;;8.33;55.89;103033.06;5095497;27;45420;-74
2022/01/23 03:00:36;;;;;;;;;29.67;23.33;;;;;8.28;56.54;103039.81;5103896;27;45370;-75
2022/01/23 03:03:10;;;;;;;;;35.33;27.67;;;;;8.22;56.32;103036.75;5070832;28;45436;-76
2022/01/23 03:05:39;;;;;;;;;25.33;22.67;;;;;8.21;56.86;103041.34;5074556;27;46415;-74
2022/01/23 03:10:47;;;;;;;;;24.67;21.67;;;;;8.23;56.61;103046.69;5102302;27;45479;-75
2022/01/23 03:16:13;;;;;;;;;24.00;20.00;;;;;8.14;57.01;103029.22;5095444;27;45700;-74
2022/01/23 03:24:24;;;;;;;;;29.33;22.67;;;;;8.07;57.51;103022.59;5092630;27;45555;-78
2022/01/23 03:27:00;;;;;;;;;32.67;25.67;;;;;8.02;56.90;103014.78;5103481;27;45986;-74
2022/01/23 03:29:51;;;;;;;;;33.33;24.67;;;;;8.07;57.33;103022.59;5083888;27;46548;-74
2022/01/23 03:32:31;;;;;;;;;33.00;27.33;;;;;8.02;57.51;103023.00;5088634;27;45290;-73
2022/01/23 03:34:57;;;;;;;;;30.75;24.50;;;;;8.02;57.89;103019.41;5089454;27;45327;-75
2022/01/23 03:37:22;;;;;;;;;39.67;27.67;;;;;8.00;57.79;103018.69;5095563;27;45279;-75
2022/01/23 03:39:48;;;;;;;;;29.25;26.00;;;;;8.00;58.01;103024.16;5093034;27;46822;-75
2022/01/23 03:42:13;;;;;;;;;27.00;25.00;;;;;8.01;57.56;103023.13;5100097;27;44828;-74
2022/01/23 03:44:44;;;;;;;;;26.00;20.67;;;;;8.02;57.48;103024.88;5099806;27;45681;-74
2022/01/23 03:47:31;;;;;;;;;23.67;21.00;;;;;8.08;57.38;103016.13;5067760;28;45767;-75
2022/01/23 03:49:57;;;;;;;;;34.00;22.67;;;;;8.13;57.37;103016.59;5091966;27;45491;-75
2022/01/23 03:52:24;;;;;;;;;26.33;21.33;;;;;8.12;57.27;103009.38;5091926;27;45311;-74
2022/01/23 03:54:50;;;;;;;;;26.33;24.00;;;;;8.18;56.99;103014.31;5089123;27;45642;-76
2022/01/23 03:57:15;;;;;;;;;21.67;20.67;;;;;8.16;57.09;103010.84;5074810;28;46220;-74
2022/01/23 03:59:40;;;;;;;;;26.33;20.00;;;;;8.14;57.11;103007.38;5087701;27;46252;-73
2022/01/23 04:02:06;;;;;;;;;30.00;22.33;;;;;8.17;57.27;103012.56;5084087;27;45414;-74
2022/01/23 04:04:39;;;;;;;;;27.67;19.00;;;;;8.18;57.16;103017.03;5090940;27;45659;-73
2022/01/23 04:07:20;;;;;;;;;18.67;16.67;;;;;8.09;57.27;102996.84;5088221;27;45875;-75
2022/01/23 04:09:47;;;;;;;;;25.67;21.00;;;;;8.12;57.61;102992.97;5081134;27;46438;-73
2022/01/23 04:12:46;;;;;;;;;23.33;18.33;;;;;8.11;56.55;102993.97;5090349;27;45360;-75
2022/01/23 04:15:29;;;;;;;;;23.00;17.67;;;;;8.11;56.94;102997.59;5081227;27;45818;-75
2022/01/23 04:33:55;;;;;;;;;21.33;17.00;;;;;7.91;57.28;103013.00;5103136;27;44793;-75
2022/01/23 05:00:54;;;;;;;;;23.00;19.00;;;;;7.94;58.00;103007.28;5100424;27;45689;-79
2022/01/23 05:06:07;;;;;;;;;18.00;14.33;;;;;7.88;58.24;103002.34;5094108;27;44830;-73
2022/01/23 05:08:35;;;;;;;;;28.33;22.33;;;;;7.90;57.80;103016.75;5089533;27;45377;-76
2022/01/23 05:11:02;;;;;;;;;29.67;24.33;;;;;7.80;57.44;103004.03;5096638;27;45392;-73
2022/01/23 05:13:29;;;;;;;;;24.00;22.00;;;;;7.80;57.88;103015.84;5096108;27;45459;-72
2022/01/23 05:15:55;;;;;;;;;27.00;24.00;;;;;7.77;57.83;103021.56;5079255;27;45726;-72
2022/01/23 05:18:21;;;;;;;;;28.50;22.50;;;;;7.73;57.71;103017.38;5105233;27;45402;-74
2022/01/23 05:20:52;;;;;;;;;24.67;21.33;;;;;7.68;57.79;103016.88;5088156;27;46991;-71
2022/01/23 05:23:18;;;;;;;;;24.00;21.00;;;;;7.57;57.66;103021.44;5092700;27;46322;-74
2022/01/23 05:25:43;;;;;;;;;26.67;20.33;;;;;7.54;58.15;103035.34;5100733;27;45721;-76
2022/01/23 05:28:09;;;;;;;;;32.50;28.25;;;;;7.50;58.17;103033.88;5091295;27;45751;-74
2022/01/23 05:30:36;;;;;;;;;34.00;25.33;;;;;7.46;58.27;103032.41;5097453;27;45398;-74
2022/01/23 05:33:01;;;;;;;;;32.00;24.33;;;;;7.35;58.74;103016.97;5111519;22;45457;-74
2022/01/23 05:35:29;;;;;;;;;25.00;25.00;;;;;7.41;58.82;103031.97;5100045;27;45348;-73
2022/01/23 05:37:55;;;;;;;;;34.00;24.00;;;;;7.40;58.99;103031.06;5096966;27;45765;-73
2022/01/23 05:40:23;;;;;;;;;35.25;27.25;;;;;7.38;58.75;103030.34;5075319;27;46579;-75
2022/01/23 05:42:48;;;;;;;;;25.33;22.00;;;;;7.39;58.20;103031.19;5097807;27;45565;-75
2022/01/23 05:45:16;;;;;;;;;32.50;25.50;;;;;7.37;59.00;103019.56;5096828;27;45561;-72
2022/01/23 05:47:41;;;;;;;;;31.67;26.00;;;;;7.35;58.94;103027.00;5096508;27;45528;-74
2022/01/23 05:50:07;;;;;;;;;34.33;26.67;;;;;7.34;59.04;103031.59;5096993;27;45369;-73
2022/01/23 05:52:33;;;;;;;;;27.50;26.50;;;;;7.32;58.54;103017.22;5096262;27;45516;-74
2022/01/23 05:54:59;;;;;;;;;28.75;25.25;;;;;7.33;59.05;103034.47;5093781;27;46003;-72
2022/01/23 05:57:25;;;;;;;;;32.67;24.67;;;;;7.32;59.34;103019.06;5094567;27;45831;-71
2022/01/23 05:59:50;;;;;;;;;28.67;23.00;;;;;7.33;58.85;103023.53;5075007;27;47487;-72
2022/01/23 06:02:16;;;;;;;;;34.00;27.75;;;;;7.33;58.82;103027.13;5089660;27;46267;-72
2022/01/23 06:04:41;;;;;;;;;23.00;21.00;;;;;7.35;59.03;103027.88;5090422;27;45849;-72
2022/01/23 06:07:06;;;;;;;;;20.00;19.00;;;;;7.31;58.43;103020.09;5089883;27;45708;-72
2022/01/23 06:09:32;;;;;;;;;24.00;23.00;;;;;7.37;58.37;103025.03;5092067;27;45739;-72
2022/01/23 06:11:58;;;;;;;;;28.67;23.67;;;;;7.32;58.47;103022.69;5092003;27;46124;-72
2022/01/23 06:14:25;;;;;;;;;27.67;24.00;;;;;7.27;58.32;103032.25;5073450;27;46240;-70
2022/01/23 06:16:51;;;;;;;;;27.00;23.00;;;;;7.20;59.09;103029.16;5092552;27;46113;-71
2022/01/23 06:19:16;;;;;;;;;31.00;22.33;;;;;7.20;59.57;103027.31;5067818;27;46534;-72
2022/01/23 06:21:42;;;;;;;;;23.33;20.00;;;;;7.19;59.11;103036.50;5089315;27;47469;-73
2022/01/23 06:24:30;;;;;;;;;28.67;23.67;;;;;7.20;60.01;103034.63;5090451;27;45822;-71
2022/01/23 06:26:56;;;;;;;;;34.00;24.67;;;;;7.20;59.45;103024.59;5094342;27;45339;-74
2022/01/23 06:29:23;;;;;;;;;25.67;20.33;;;;;7.24;59.67;103020.63;5092744;27;45495;-72
2022/01/23 06:31:50;;;;;;;;;24.67;20.67;;;;;7.23;59.14;103023.44;5072973;27;46991;-76
2022/01/23 06:34:20;;;;;;;;;30.00;25.33;;;;;7.18;59.42;103032.03;5102338;27;45430;-74
2022/01/23 06:36:53;;;;;;;;;30.33;23.33;;;;;7.09;59.52;103035.53;5091033;27;45786;-74
2022/01/23 06:39:21;;;;;;;;;22.33;17.67;;;;;7.05;59.73;103037.66;5096481;27;45707;-74
2022/01/23 06:41:47;;;;;;;;;21.00;17.00;;;;;7.01;58.49;103029.88;5099434;27;46670;-74
2022/01/23 06:44:13;;;;;;;;;18.67;16.00;;;;;7.00;59.15;103029.00;5094023;27;45715;-73
2022/01/23 06:46:45;;;;;;;;;21.33;14.33;;;;;6.99;59.25;103026.41;5092786;27;45862;-72
2022/01/23 06:49:11;;;;;;;;;18.33;13.67;;;;;6.96;59.06;103026.66;5091627;27;45471;-73
2022/01/23 06:51:37;;;;;;;;;19.67;16.00;;;;;6.98;59.05;103019.22;5091979;27;46417;-77
2022/01/23 06:54:03;;;;;;;;;17.67;14.00;;;;;6.99;58.18;103040.03;5100181;27;45451;-78
2022/01/23 06:56:31;;;;;;;;;23.00;17.33;;;;;6.98;58.54;103030.13;5096533;27;45848;-75
2022/01/23 06:58:57;;;;;;;;;18.67;16.00;;;;;7.02;58.46;103037.03;5096690;27;45707;-75
2022/01/23 07:01:22;;;;;;;;;19.33;16.00;;;;;7.04;59.05;103040.53;5092965;27;46175;-75
2022/01/23 07:03:48;;;;;;;;;18.33;16.33;;;;;7.06;58.40;103038.53;5097547;27;45358;-75
2022/01/23 07:06:13;;;;;;;;;19.00;15.67;;;;;7.10;58.21;103045.47;5081037;27;45501;-78
2022/01/23 07:08:39;;;;;;;;;19.00;18.33;;;;;7.15;58.45;103042.34;5097006;27;45484;-77
2022/01/23 07:11:04;;;;;;;;;19.67;17.00;;;;;7.12;57.75;103039.88;5090154;27;46596;-76
2022/01/23 07:13:30;;;;;;;;;21.67;16.00;;;;;7.09;58.71;103046.44;5092228;27;45492;-78
2022/01/23 07:15:56;;;;;;;;;21.33;18.00;;;;;7.07;58.70;103048.47;5091968;27;45754;-78
2022/01/23 07:18:21;;;;;;;;;26.67;16.00;;;;;7.03;58.92;103045.09;5087744;27;45903;-75
2022/01/23 07:20:47;;;;;;;;;26.00;16.67;;;;;7.03;59.35;103044.25;5091017;27;45932;-75
2022/01/23 07:23:21;;;;;;;;;20.33;17.67;;;;;6.97;59.35;103050.22;5080281;27;45792;-75
2022/01/23 07:25:48;;;;;;;;;16.33;15.67;;;;;6.95;59.51;103031.25;5091829;27;45952;-77
2022/01/23 07:28:16;;;;;;;;;27.00;17.67;;;;;6.96;60.24;103038.44;5083758;27;45634;-76
2022/01/23 07:30:56;;;;;;;;;21.33;16.00;;;;;6.93;59.74;103046.00;5087972;27;46712;-75
2022/01/23 07:33:21;;;;;;;;;23.33;18.00;;;;;6.84;60.69;103044.91;5073810;27;45925;-74
2022/01/23 07:36:01;;;;;;;;;23.00;18.00;;;;;6.79;59.74;103049.88;5093689;27;45580;-76
2022/01/23 07:38:37;;;;;;;;;16.00;16.00;;;;;6.75;59.70;103052.03;5084109;27;45702;-77
2022/01/23 07:41:03;;;;;;;;;18.00;14.00;;;;;6.73;59.97;103043.06;5072603;27;47569;-77
2022/01/23 07:43:31;;;;;;;;;22.33;16.33;;;;;6.78;60.37;103040.84;5078856;27;46938;-76
2022/01/23 07:45:56;;;;;;;;;18.00;13.00;;;;;6.83;60.13;103032.28;5092769;27;45737;-75
2022/01/23 07:48:24;;;;;;;;;21.00;13.67;;;;;6.89;59.98;103031.78;5087378;27;45863;-77
2022/01/23 07:50:50;;;;;;;;;18.67;15.33;;;;;6.86;60.09;103049.25;5086182;27;46950;-76
2022/01/23 07:53:15;;;;;;;;;15.00;13.00;;;;;6.88;59.41;103036.34;5094878;27;45773;-78
2022/01/23 07:55:44;;;;;;;;;22.67;15.33;;;;;6.95;59.54;103041.31;5090588;27;45497;-76
2022/01/23 07:58:14;;;;;;;;;18.00;14.67;;;;;7.01;59.45;103043.53;5089711;27;45396;-77
2022/01/23 08:00:40;;;;;;;;;13.33;12.00;;;;;7.00;58.56;103050.81;5079712;27;47133;-79
2022/01/23 08:03:06;;;;;;;;;10.67;9.33;;;;;7.07;59.22;103064.81;5094265;27;45586;-76
2022/01/23 08:05:32;;;;;;;;;15.67;10.67;;;;;7.08;58.25;103077.50;5096046;27;45442;-75
2022/01/23 08:08:00;;;;;;;;;14.33;12.67;;;;;7.09;58.81;103076.47;5098292;27;45769;-78
2022/01/23 08:10:25;;;;;;;;;7.00;7.00;;;;;7.00;58.18;103055.41;5092114;27;45489;-73
2022/01/23 08:12:51;;;;;;;;;10.00;7.33;;;;;7.06;58.14;103079.47;5086959;27;45950;-73
2022/01/23 08:15:16;;;;;;;;;19.33;12.33;;;;;7.05;58.47;103069.53;5094175;27;45554;-72
2022/01/23 08:17:42;;;;;;;;;13.67;11.00;;;;;7.12;58.84;103068.03;5095659;27;45544;-75
2022/01/23 08:20:08;;;;;;;;;15.00;14.00;;;;;7.09;58.94;103071.00;5094100;27;46630;-76
2022/01/23 08:22:37;;;;;;;;;13.33;11.67;;;;;7.17;58.42;103078.53;5091605;27;45785;-75
2022/01/23 08:25:03;;;;;;;;;15.00;12.00;;;;;7.13;58.53;103077.94;5076448;27;45525;-72
2022/01/23 08:27:29;;;;;;;;;21.33;17.67;;;;;7.05;58.80;103080.44;5095604;27;45756;-74
2022/01/23 08:29:55;;;;;;;;;18.33;15.67;;;;;6.97;58.74;103072.91;5094790;27;45788;-75
2022/01/23 08:32:20;;;;;;;;;21.67;15.00;;;;;6.98;58.97;103084.69;5094836;27;45559;-74
2022/01/23 08:34:46;;;;;;;;;17.67;15.00;;;;;6.91;59.15;103087.06;5094867;27;45918;-74
2022/01/23 08:37:12;;;;;;;;;19.67;16.33;;;;;6.88;58.12;103079.97;5086470;27;45556;-73
2022/01/23 08:39:38;;;;;;;;;18.67;12.00;;;;;6.81;58.82;103076.06;5090747;27;45497;-76
2022/01/23 08:42:06;;;;;;;;;31.50;24.50;;;;;6.88;59.55;103074.53;5092558;27;45628;-76
2022/01/23 08:44:32;;;;;;;;;27.00;20.67;;;;;6.92;59.48;103077.88;5088040;27;45814;-76
2022/01/23 08:46:58;;;;;;;;;29.67;23.33;;;;;6.84;59.68;103066.72;5102079;27;45913;-75
2022/01/23 08:49:26;;;;;;;;;14.33;12.00;;;;;6.88;59.13;103084.56;5094603;27;45810;-75
2022/01/23 08:51:52;;;;;;;;;24.67;19.33;;;;;6.87;59.40;103083.72;5089639;27;45763;-75
2022/01/23 08:54:21;;;;;;;;;21.33;17.00;;;;;6.86;59.22;103081.97;5097085;27;45532;-77
2022/01/23 08:56:47;;;;;;;;;22.00;14.67;;;;;6.86;58.91;103092.03;5097401;27;45750;-74
2022/01/23 08:59:12;;;;;;;;;28.67;20.00;;;;;6.79;59.13;103069.84;5095591;27;46515;-74
2022/01/23 09:01:38;;;;;;;;;27.00;19.00;;;;;6.80;58.93;103087.94;5097046;27;45826;-74
2022/01/23 09:04:05;;;;;;;;;23.33;16.67;;;;;6.86;58.45;103084.72;5072885;27;45355;-74
2022/01/23 09:06:31;;;;;;;;;27.33;22.67;;;;;6.91;58.97;103078.00;5085854;27;45534;-75
2022/01/23 09:08:59;;;;;;;;;24.50;21.00;;;;;6.95;59.10;103074.03;5095276;27;45434;-73
2022/01/23 09:11:28;;;;;;;;;18.00;17.67;;;;;6.95;58.29;103083.09;5095402;27;45917;-74
2022/01/23 09:16:20;;;;;;;;;22.00;19.00;;;;;6.96;58.39;103086.66;5090993;27;45685;-76
2022/01/23 09:18:46;;;;;;;;;24.00;20.67;;;;;6.94;59.23;103094.13;5096336;27;45433;-76
2022/01/23 09:21:11;;;;;;;;;24.67;20.00;;;;;6.93;58.54;103086.91;5095537;27;45602;-74
2022/01/23 09:23:37;;;;;;;;;24.75;20.50;;;;;6.99;58.60;103080.97;5083139;27;45689;-74
2022/01/23 09:26:08;;;;;;;;;23.33;20.33;;;;;7.01;58.74;103090.75;5091709;27;45452;-76
2022/01/23 09:28:35;;;;;;;;;8.33;8.33;;;;;7.00;58.85;103091.75;5091164;27;45879;-75
2022/01/23 09:31:02;;;;;;;;;26.67;22.00;;;;;6.95;58.79;103080.34;5091399;27;45730;-75
2022/01/23 09:33:28;;;;;;;;;26.33;22.67;;;;;6.96;59.07;103083.94;5090501;27;45642;-76
2022/01/23 09:35:54;;;;;;;;;30.33;23.33;;;;;6.98;58.12;103084.69;5091114;27;45543;-74
2022/01/23 09:38:20;;;;;;;;;25.67;22.33;;;;;7.00;59.02;103094.47;5087201;27;46530;-74
2022/01/23 09:40:53;;;;;;;;;30.25;24.25;;;;;7.04;58.38;103095.09;5092333;27;45931;-72
2022/01/23 09:43:20;;;;;;;;;30.67;23.33;;;;;7.08;58.91;103093.84;5086842;27;45666;-74
2022/01/23 09:45:49;;;;;;;;;31.00;23.00;;;;;7.20;58.28;103094.66;5091318;27;45823;-75
2022/01/23 09:48:17;;;;;;;;;36.00;23.67;;;;;7.23;58.56;103089.84;5091176;27;45829;-75
2022/01/23 09:50:45;;;;;;;;;23.00;21.67;;;;;7.31;58.69;103099.25;5087507;27;45547;-74
2022/01/23 09:53:13;;;;;;;;;29.33;23.33;;;;;7.31;58.45;103083.72;5086806;27;45583;-74
2022/01/23 09:55:40;;;;;;;;;32.75;27.25;;;;;7.40;58.19;103084.81;5089699;27;46306;-75
2022/01/23 09:58:06;;;;;;;;;27.00;22.67;;;;;7.42;58.26;103074.63;5090740;27;46212;-75
2022/01/23 10:00:33;;;;;;;;;22.33;21.00;;;;;7.52;57.88;103089.22;5090983;27;45854;-74
2022/01/23 10:02:58;;;;;;;;;24.67;21.00;;;;;7.53;57.31;103084.63;5070920;27;45683;-74
2022/01/23 10:05:24;;;;;;;;;26.33;25.00;;;;;7.57;56.99;103086.09;5090971;27;45827;-73
2022/01/23 10:07:50;;;;;;;;;24.00;18.33;;;;;7.64;57.30;103079.13;5090575;27;46804;-74
2022/01/23 10:10:22;;;;;;;;;34.33;30.33;;;;;7.73;57.17;103088.38;5071576;27;45898;-77
2022/01/23 10:12:50;;;;;;;;;24.33;22.33;;;;;7.78;56.73;103094.31;5092498;27;45842;-74
2022/01/23 10:15:21;;;;;;;;;24.67;22.67;;;;;7.81;56.96;103099.50;5088117;27;45413;-75
2022/01/23 10:17:47;;;;;;;;;21.33;18.00;;;;;7.82;56.26;103094.94;5090416;27;46838;-74
2022/01/23 10:20:14;;;;;;;;;22.67;21.00;;;;;7.80;56.37;103094.16;5088565;27;45906;-74
2022/01/23 10:22:43;;;;;;;;;19.67;18.67;;;;;7.82;56.01;103103.13;5066166;27;45749;-75
2022/01/23 10:25:10;;;;;;;;;20.67;17.33;;;;;7.83;56.72;103093.91;5089384;27;45914;-74
2022/01/23 10:27:57;;;;;;;;;22.33;18.00;;;;;7.81;55.83;103093.19;5090820;27;46645;-74
2022/01/23 10:30:31;;;;;;;;;22.33;18.00;;;;;7.69;56.26;103100.56;5087910;27;45862;-75
2022/01/23 10:33:00;;;;;;;;;21.00;21.00;;;;;7.67;56.46;103099.84;5086859;27;45883;-75
2022/01/23 10:35:26;;;;;;;;;21.67;18.00;;;;;7.65;56.17;103101.81;5068476;27;46152;-74
2022/01/23 10:37:54;;;;;;;;;25.00;19.33;;;;;7.60;56.65;103096.75;5069076;27;47658;-73
2022/01/23 10:40:23;;;;;;;;;17.00;17.00;;;;;7.54;56.68;103087.22;5084582;27;45418;-77
2022/01/23 10:50:51;;;;;;;;;21.33;17.33;;;;;7.37;57.19;103088.66;5092865;27;45921;-78
2022/01/23 10:53:16;;;;;;;;;16.67;12.67;;;;;7.34;58.11;103099.00;5093851;27;45537;-77
2022/01/23 10:55:43;;;;;;;;;22.33;17.00;;;;;7.31;57.72;103093.78;5070278;27;45901;-75
2022/01/23 10:58:21;;;;;;;;;14.33;13.00;;;;;7.20;57.89;103081.91;5074727;27;46766;-74
2022/01/23 11:00:47;;;;;;;;;21.33;15.33;;;;;7.17;57.89;103076.72;5064856;27;45781;-71
2022/01/23 11:03:22;;;;;;;;;21.33;17.00;;;;;7.16;58.40;103085.88;5083940;27;45473;-71
2022/01/23 11:05:50;;;;;;;;;23.00;18.50;;;;;7.10;58.93;103067.28;5084836;27;45911;-72
2022/01/23 11:08:20;;;;;;;;;29.00;23.00;;;;;7.04;58.94;103076.00;5083171;27;46766;-75
2022/01/23 11:11:12;;;;;;;;;20.67;17.67;;;;;7.02;58.15;103069.78;5071288;27;45609;-78
2022/01/23 11:19:30;;;;;;;;;19.67;17.33;;;;;7.08;57.90;103036.56;5095863;27;45865;-80
2022/01/23 11:21:59;;;;;;;;;28.00;22.33;;;;;7.27;57.75;103045.91;5075331;27;45493;-81
2022/01/23 11:24:35;;;;;;;;;20.00;20.00;;;;;7.28;58.12;103034.84;5094572;27;45579;-80
2022/01/23 11:27:03;;;;;;;;;25.00;19.33;;;;;7.34;57.58;103045.25;5100481;27;45890;-81
2022/01/23 11:29:29;;;;;;;;;22.67;19.33;;;;;7.24;58.24;103030.66;5065027;27;47478;-82
2022/01/23 11:31:54;;;;;;;;;24.67;20.00;;;;;7.35;57.58;103044.25;5102545;27;45522;-81
2022/01/23 11:34:26;;;;;;;;;22.33;19.00;;;;;7.41;58.01;103037.41;5095470;27;45370;-80
2022/01/23 11:36:52;;;;;;;;;24.67;22.00;;;;;7.38;57.30;103037.66;5095915;27;45445;-80
2022/01/23 11:40:05;;;;;;;;;24.00;21.67;;;;;7.36;58.22;103034.19;5090135;27;46529;-81
2022/01/23 11:51:02;;;;;;;;;18.67;16.33;;;;;7.36;58.25;103018.66;5030980;28;45640;-79
2022/01/23 11:56:25;;;;;;;;;22.00;19.33;;;;;7.51;57.18;103026.56;5081357;27;45732;-83
2022/01/23 11:58:53;;;;;;;;;18.33;17.33;;;;;7.60;56.66;103023.03;5075385;27;46661;-77
2022/01/23 12:01:20;;;;;;;;;17.33;15.00;;;;;7.62;57.01;103023.78;5094372;27;45540;-79
2022/01/23 12:04:07;;;;;;;;;14.67;12.67;;;;;7.72;55.88;103024.69;5093085;27;45382;-76
2022/01/23 12:06:42;;;;;;;;;15.00;13.00;;;;;7.70;56.10;103013.03;5086991;27;45784;-78
2022/01/23 12:09:13;;;;;;;;;17.33;14.67;;;;;7.76;55.91;103006.19;5097826;27;45741;-79
2022/01/23 12:16:58;;;;;;;;;19.67;12.33;;;;;7.87;56.21;103000.63;5097178;27;45385;-78
2022/01/23 12:19:29;;;;;;;;;30.67;26.67;;;;;8.00;55.66;102999.56;5097280;27;45949;-77
2022/01/23 12:21:56;;;;;;;;;44.00;33.25;;;;;8.06;55.27;102994.38;5094832;27;46289;-79
2022/01/23 12:24:24;;;;;;;;;15.67;12.33;;;;;8.05;54.46;102992.66;5097268;27;45594;-78
2022/01/23 12:27:11;;;;;;;;;14.00;11.33;;;;;8.05;54.94;102989.91;5098131;27;45788;-78
2022/01/23 12:29:36;;;;;;;;;17.33;16.00;;;;;8.03;54.81;102989.19;5090559;27;44881;-78
2022/01/23 12:32:29;;;;;;;;;22.00;12.67;;;;;8.08;55.92;102994.25;5099251;27;45522;-80
2022/01/23 12:35:00;;;;;;;;;21.67;13.00;;;;;8.23;55.50;102984.69;5081580;27;45719;-77
2022/01/23 12:37:46;;;;;;;;;20.67;18.00;;;;;8.43;55.31;102977.41;5096792;27;45726;-76
2022/01/23 12:40:31;;;;;;;;;30.25;23.50;;;;;8.63;54.37;102978.34;5083264;27;46104;-79
2022/01/23 12:43:09;;;;;;;;;18.33;13.67;;;;;8.69;53.31;102962.41;5093496;27;45485;-80
2022/01/23 12:45:56;;;;;;;;;17.00;14.67;;;;;8.74;53.45;102968.28;5072721;27;45770;-79
2022/01/23 12:48:51;;;;;;;;;15.00;11.67;;;;;8.75;53.05;102953.63;5101590;27;45483;-78
2022/01/23 12:51:19;;;;;;;;;16.00;13.33;;;;;8.72;52.93;102962.09;5099373;27;45891;-79
2022/01/23 12:53:47;;;;;;;;;12.00;9.33;;;;;8.68;53.38;102945.09;5097709;27;46415;-79
2022/01/23 12:56:29;;;;;;;;;18.67;15.00;;;;;8.59;53.59;102954.16;5100220;27;45571;-79
2022/01/23 12:59:00;;;;;;;;;14.33;13.67;;;;;8.47;53.70;102940.63;5100622;27;45709;-79
2022/01/23 13:01:28;;;;;;;;;18.33;17.00;;;;;8.54;54.00;102945.53;5103161;27;45477;-78
2022/01/23 13:04:00;;;;;;;;;21.00;15.33;;;;;8.56;53.77;102922.50;5091280;27;45400;-80
2022/01/23 13:06:40;;;;;;;;;16.67;13.00;;;;;8.62;53.37;102937.47;5082159;27;45667;-78
2022/01/23 13:09:21;;;;;;;;;14.67;12.00;;;;;8.66;53.43;102928.81;5101919;27;45727;-80
2022/01/23 13:12:51;;;;;;;;;21.33;19.00;;;;;8.72;53.65;102930.13;5100631;27;45409;-79
2022/01/23 13:26:49;;;;;;;;;24.33;18.00;;;;;8.64;53.62;102910.84;5092060;27;45792;-79
2022/01/23 13:32:16;;;;;;;;;21.33;19.00;;;;;8.68;53.35;102912.25;5097484;27;46744;-79
2022/01/23 13:34:48;;;;;;;;;19.33;16.67;;;;;8.54;54.07;102899.88;5080288;27;46854;-79
2022/01/23 13:37:16;;;;;;;;;18.33;16.67;;;;;8.55;53.86;102903.47;5095438;27;45938;-78
2022/01/23 13:39:47;;;;;;;;;18.67;17.33;;;;;8.48;53.88;102909.50;5096976;27;45508;-78
2022/01/23 13:53:48;;;;;;;;;23.00;19.67;;;;;8.60;54.02;102882.91;5098091;27;45421;-76
2022/01/23 13:59:18;;;;;;;;;19.67;17.33;;;;;8.52;54.23;102879.16;5097395;27;45491;-78
2022/01/23 14:02:06;;;;;;;;;21.00;19.00;;;;;8.42;53.99;102866.31;5098313;27;45722;-78
2022/01/23 14:05:13;;;;;;;;;16.00;15.00;;;;;8.26;53.92;102855.94;5091564;27;45381;-78
2022/01/23 14:07:47;;;;;;;;;24.33;19.33;;;;;8.21;54.32;102863.69;5079672;27;46217;-77
2022/01/23 14:10:16;;;;;;;;;24.67;21.67;;;;;8.16;54.04;102871.47;5095181;27;46152;-78
2022/01/23 14:12:47;;;;;;;;;20.00;14.00;;;;;8.11;55.26;102871.00;5078183;27;46109;-79
2022/01/23 14:15:30;;;;;;;;;24.33;21.33;;;;;8.03;55.61;102862.66;5079157;27;45467;-77
2022/01/23 14:18:19;;;;;;;;;31.67;22.67;;;;;7.93;55.29;102860.75;5060176;27;46002;-79
2022/01/23 14:21:09;;;;;;;;;28.50;25.75;;;;;7.86;55.55;102853.22;5093693;27;45852;-76
2022/01/23 14:23:51;;;;;;;;;23.67;20.67;;;;;7.87;56.07;102855.81;5098694;27;45464;-78
2022/01/23 14:26:17;;;;;;;;;20.67;19.33;;;;;7.91;55.42;102853.69;5092568;27;45978;-80
2022/01/23 14:28:46;;;;;;;;;21.67;15.67;;;;;7.95;55.86;102864.19;5078341;27;46703;-78
2022/01/23 14:31:20;;;;;;;;;21.67;17.67;;;;;8.02;55.53;102847.25;5074537;27;46973;-76
2022/01/23 14:33:50;;;;;;;;;26.00;17.67;;;;;8.10;55.34;102858.34;5092081;27;45953;-76
2022/01/23 14:36:18;;;;;;;;;20.67;16.67;;;;;8.14;54.96;102843.38;5074550;27;45740;-77
2022/01/23 14:38:58;;;;;;;;;17.00;17.00;;;;;8.09;55.14;102845.69;5098668;27;45477;-79